createdAt,value
2022-08-05T00:00:53.065Z,7.17
2022-08-05T00:03:56.888Z,7.40
2022-08-05T00:07:01.750Z,7.13
2022-08-05T00:10:27.020Z,6.22
2022-08-05T00:13:38.906Z,6.65
2022-08-05T00:16:52.637Z,6.67
2022-08-05T00:20:02.043Z,6.72
2022-08-05T00:23:12.503Z,6.60
2022-08-05T00:26:16.800Z,6.50
2022-08-05T00:29:19.392Z,6.68
2022-08-05T00:32:26.326Z,6.47
2022-08-05T00:35:33.150Z,6.30
2022-08-05T00:38:39.746Z,6.70
2022-08-05T00:41:55.031Z,6.75
2022-08-05T00:44:58.636Z,6.57
2022-08-05T00:48:05.472Z,7.17
2022-08-05T00:51:51.706Z,6.70
2022-08-05T00:54:35.483Z,6.03
2022-08-05T00:57:58.508Z,6.82
2022-08-05T01:01:02.483Z,6.30
2022-08-05T01:04:14.067Z,5.60
2022-08-05T01:07:17.985Z,6.13
2022-08-05T01:10:36.448Z,5.38
2022-08-05T01:13:58.788Z,5.90
2022-08-05T01:17:06.967Z,5.93
2022-08-05T01:20:22.438Z,5.80
2022-08-05T01:23:40.963Z,5.65
2022-08-05T01:26:57.959Z,5.72
2022-08-05T01:30:05.376Z,5.18
2022-08-05T01:33:25.188Z,5.28
2022-08-05T01:36:32.078Z,4.77
2022-08-05T01:39:46.096Z,5.13
2022-08-05T01:42:52.750Z,5.50
2022-08-05T01:46:07.431Z,5.30
2022-08-05T01:49:24.895Z,5.32
2022-08-05T01:52:29.272Z,5.10
2022-08-05T01:55:36.055Z,4.85
2022-08-05T01:58:45.423Z,5.30
2022-08-05T02:01:54.875Z,5.05
2022-08-05T02:05:03.077Z,5.68
2022-08-05T02:08:06.909Z,5.60
2022-08-05T02:11:12.449Z,5.60
2022-08-05T02:14:21.866Z,5.10
2022-08-05T02:18:31.138Z,5.10
2022-08-05T02:21:00.029Z,5.10
2022-08-05T02:24:10.243Z,5.00
2022-08-05T02:27:14.455Z,4.90
2022-08-05T02:30:18.784Z,4.32
2022-08-05T02:33:38.592Z,4.70
2022-08-05T02:36:45.315Z,4.50
2022-08-05T02:39:51.619Z,4.67
2022-08-05T02:42:56.509Z,4.53
2022-08-05T02:46:01.085Z,5.18
2022-08-05T02:49:07.569Z,4.57
2022-08-05T02:52:30.201Z,4.68
2022-08-05T02:55:54.265Z,4.20
2022-08-05T02:58:59.404Z,4.90
2022-08-05T03:02:04.043Z,4.57
2022-08-05T03:05:10.902Z,4.50
2022-08-05T03:08:16.536Z,4.32
2022-08-05T03:11:57.015Z,4.20
2022-08-05T03:14:46.059Z,4.75
2022-08-05T03:17:48.893Z,4.90
2022-08-05T03:20:58.337Z,4.70
2022-08-05T03:24:03.202Z,5.10
2022-08-05T03:27:06.739Z,4.80
2022-08-05T03:30:11.272Z,4.85
2022-08-05T03:33:15.384Z,4.63
2022-08-05T03:36:29.766Z,4.55
2022-08-05T03:39:38.227Z,4.90
2022-08-05T03:42:56.222Z,4.50
2022-08-05T03:45:59.125Z,4.57
2022-08-05T03:49:02.625Z,4.43
2022-08-05T03:52:39.332Z,4.75
2022-08-05T03:56:04.724Z,4.78
2022-08-05T03:59:07.714Z,4.78
2022-08-05T04:02:17.332Z,4.70
2022-08-05T04:05:37.078Z,4.27
2022-08-05T04:08:46.648Z,4.20
2022-08-05T04:11:52.642Z,4.40
2022-08-05T04:14:57.788Z,4.45
2022-08-05T04:18:03.037Z,4.55
2022-08-05T04:21:06.773Z,4.60
2022-08-05T04:24:18.789Z,4.60
2022-08-05T04:27:41.615Z,4.65
2022-08-05T04:30:46.925Z,4.30
2022-08-05T04:34:17.568Z,5.00
2022-08-05T04:37:13.425Z,4.60
2022-08-05T04:40:19.471Z,4.75
2022-08-05T04:43:22.365Z,4.78
2022-08-05T04:46:27.798Z,4.53
2022-08-05T04:49:39.260Z,4.80
2022-08-05T04:52:53.954Z,4.67
2022-08-05T04:56:33.934Z,4.40
2022-08-05T04:59:36.618Z,4.65
2022-08-05T05:02:43.478Z,4.20
2022-08-05T05:06:39.670Z,4.50
2022-08-05T05:09:09.881Z,4.37
2022-08-05T05:12:18.196Z,4.30
2022-08-05T05:15:57.320Z,4.20
2022-08-05T05:18:57.085Z,4.43
2022-08-05T05:22:22.759Z,4.57
2022-08-05T05:25:33.033Z,4.73
2022-08-05T05:28:45.599Z,5.38
2022-08-05T05:31:48.265Z,5.03
2022-08-05T05:34:52.344Z,4.93
2022-08-05T05:38:00.053Z,5.07
2022-08-05T05:41:04.203Z,4.90
2022-08-05T05:44:35.679Z,4.50
2022-08-05T05:48:07.087Z,4.88
2022-08-05T05:50:58.528Z,5.00
2022-08-05T05:54:17.495Z,5.40
2022-08-05T05:57:22.432Z,5.27
2022-08-05T06:00:31.424Z,4.97
2022-08-05T06:03:53.830Z,5.00
2022-08-05T06:07:01.446Z,5.13
2022-08-05T06:10:10.014Z,4.70
2022-08-05T06:13:13.470Z,4.73
2022-08-05T06:16:31.067Z,4.40
2022-08-05T06:19:35.822Z,4.65
2022-08-05T06:22:40.571Z,4.78
2022-08-05T06:26:12.150Z,5.00
2022-08-05T06:29:25.444Z,4.23
2022-08-05T06:32:31.809Z,4.28
2022-08-05T06:36:07.341Z,4.40
2022-08-05T06:38:57.161Z,4.10
2022-08-05T06:42:04.160Z,4.53
2022-08-05T06:45:08.575Z,4.10
2022-08-05T06:48:56.107Z,4.10
2022-08-05T06:51:35.521Z,4.18
2022-08-05T06:54:43.251Z,3.85
2022-08-05T06:57:57.760Z,4.00
2022-08-05T07:01:07.449Z,3.30
2022-08-05T07:04:13.932Z,3.42
2022-08-05T07:07:17.109Z,3.65
2022-08-05T07:10:38.293Z,3.95
2022-08-05T07:14:15.607Z,3.70
2022-08-05T07:18:00.161Z,4.10
2022-08-05T07:20:47.638Z,4.25
2022-08-05T07:23:52.272Z,4.05
2022-08-05T07:26:55.214Z,3.90
2022-08-05T07:30:22.254Z,4.90
2022-08-05T07:33:36.487Z,3.90
2022-08-05T07:36:41.698Z,4.05
2022-08-05T07:40:07.230Z,4.60
2022-08-05T07:43:20.250Z,4.28
2022-08-05T07:46:24.841Z,4.35
2022-08-05T07:49:28.662Z,4.30
2022-08-05T07:52:32.628Z,4.03
2022-08-05T07:55:53.598Z,4.38
2022-08-05T07:58:59.132Z,4.10
2022-08-05T08:02:03.222Z,4.43
2022-08-05T08:05:06.828Z,4.30
2022-08-05T08:08:12.351Z,4.10
2022-08-05T08:11:16.045Z,4.43
2022-08-05T08:14:19.220Z,3.80
2022-08-05T08:17:22.077Z,4.20
2022-08-05T08:21:00.495Z,4.00
2022-08-05T08:24:02.309Z,4.03
2022-08-05T08:27:08.003Z,4.07
2022-08-05T08:30:27.631Z,3.90
2022-08-05T08:33:35.938Z,3.72
2022-08-05T08:36:47.594Z,3.67
2022-08-05T08:39:56.732Z,4.25
2022-08-05T08:45:17.109Z,4.13
2022-08-05T08:46:25.130Z,4.20
2022-08-05T08:50:07.799Z,4.00
2022-08-05T08:52:57.613Z,3.90
2022-08-05T08:56:05.830Z,3.85
2022-08-05T08:59:19.208Z,4.00
2022-08-05T09:02:26.623Z,4.18
2022-08-05T09:05:38.719Z,3.95
2022-08-05T09:08:52.261Z,4.50
2022-08-05T09:12:03.251Z,3.60
2022-08-05T09:15:09.350Z,3.70
2022-08-05T09:18:13.506Z,3.50
2022-08-05T09:21:20.799Z,3.80
2022-08-05T09:24:39.084Z,4.00
2022-08-05T09:28:04.505Z,4.18
2022-08-05T09:31:23.265Z,3.92
2022-08-05T09:34:47.646Z,3.83
2022-08-05T09:38:16.593Z,3.40
2022-08-05T09:41:16.143Z,3.70
2022-08-05T09:44:34.257Z,3.58
2022-08-05T09:47:55.002Z,3.30
2022-08-05T09:51:01.437Z,3.45
2022-08-05T09:54:07.639Z,3.67
2022-08-05T09:57:23.544Z,3.20
2022-08-05T10:00:30.558Z,3.75
2022-08-05T10:03:56.951Z,3.70
2022-08-05T10:06:59.086Z,3.38
2022-08-05T10:10:14.197Z,3.53
2022-08-05T10:13:31.555Z,3.47
2022-08-05T10:16:52.988Z,3.60
2022-08-05T10:20:04.041Z,3.92
2022-08-05T10:23:34.400Z,3.40
2022-08-05T10:26:51.257Z,3.40
2022-08-05T10:30:41.247Z,3.97
2022-08-05T10:33:19.465Z,3.70
2022-08-05T10:36:26.039Z,4.03
2022-08-05T10:40:03.639Z,3.55
2022-08-05T10:43:02.504Z,4.57
2022-08-05T10:46:10.561Z,4.20
2022-08-05T10:49:16.897Z,3.83
2022-08-05T10:52:40.428Z,3.90
2022-08-05T10:56:07.964Z,3.50
2022-08-05T11:00:03.553Z,3.70
2022-08-05T11:03:25.702Z,3.40
2022-08-05T11:06:31.326Z,3.40
2022-08-05T11:09:46.609Z,3.20
2022-08-05T11:12:50.565Z,3.00
2022-08-05T11:16:22.712Z,3.65
2022-08-05T11:20:09.939Z,3.43
2022-08-05T11:24:02.895Z,3.38
2022-08-05T11:27:50.110Z,3.70
2022-08-05T11:31:56.968Z,3.40
2022-08-05T11:34:50.918Z,3.42
2022-08-05T11:38:29.157Z,3.40
2022-08-05T11:41:56.403Z,2.75
2022-08-05T11:45:01.961Z,3.30
2022-08-05T11:48:09.417Z,2.97
2022-08-05T11:51:44.725Z,3.20
2022-08-05T11:54:40.454Z,3.20
2022-08-05T11:58:09.840Z,3.28
2022-08-05T12:01:12.776Z,3.25
2022-08-05T12:04:21.793Z,3.30
2022-08-05T12:08:03.467Z,3.40
2022-08-05T12:10:50.537Z,3.23
2022-08-05T12:13:58.729Z,2.80
2022-08-05T12:18:03.375Z,3.05
2022-08-05T12:20:38.612Z,3.00
2022-08-05T12:23:43.251Z,3.10
2022-08-05T12:26:48.601Z,2.60
2022-08-05T12:30:04.643Z,2.92
2022-08-05T12:33:27.240Z,2.70
2022-08-05T12:36:30.600Z,2.90
2022-08-05T12:39:38.492Z,3.10
2022-08-05T12:42:41.916Z,2.60
2022-08-05T12:45:56.693Z,2.67
2022-08-05T12:49:01.152Z,2.30
2022-08-05T12:52:23.956Z,2.20
2022-08-05T12:55:32.951Z,2.28
2022-08-05T12:58:38.235Z,2.33
2022-08-05T13:02:06.829Z,2.30
2022-08-05T13:05:11.143Z,2.50
2022-08-05T13:08:19.514Z,2.53
2022-08-05T13:12:01.064Z,2.55
2022-08-05T13:14:48.030Z,2.60
2022-08-05T13:18:09.820Z,2.70
2022-08-05T13:21:12.569Z,2.97
2022-08-05T13:24:36.214Z,2.78
2022-08-05T13:27:42.687Z,3.10
2022-08-05T13:30:45.478Z,3.00
2022-08-05T13:34:21.710Z,3.22
2022-08-05T13:37:15.206Z,3.10
2022-08-05T13:40:48.170Z,2.90
2022-08-05T13:43:55.193Z,3.17
2022-08-05T13:47:02.341Z,3.30
2022-08-05T13:50:16.490Z,2.80
2022-08-05T13:53:19.514Z,3.10
2022-08-05T13:56:22.382Z,3.10
2022-08-05T13:59:26.963Z,3.00
2022-08-05T14:02:31.383Z,3.20
2022-08-05T14:06:24.713Z,3.20
2022-08-05T14:09:00.519Z,3.10
2022-08-05T14:12:17.142Z,3.20
2022-08-05T14:16:07.159Z,3.53
2022-08-05T14:18:43.623Z,3.00
2022-08-05T14:22:10.216Z,3.13
2022-08-05T14:25:19.072Z,3.50
2022-08-05T14:28:26.229Z,3.58
2022-08-05T14:32:03.778Z,3.63
2022-08-05T14:34:52.598Z,3.43
2022-08-05T14:37:56.592Z,3.88
2022-08-05T14:41:07.700Z,3.75
2022-08-05T14:44:20.471Z,3.80
2022-08-05T14:48:03.669Z,3.53
2022-08-05T14:50:48.241Z,3.50
2022-08-05T14:54:26.686Z,3.70
2022-08-05T14:57:16.352Z,4.00
2022-08-05T15:00:21.349Z,3.80
2022-08-05T15:03:33.581Z,3.35
2022-08-05T15:06:41.801Z,3.60
2022-08-05T15:09:54.172Z,3.55
2022-08-05T15:13:03.301Z,4.03
2022-08-05T15:16:08.129Z,4.28
2022-08-05T15:19:23.704Z,3.67
2022-08-05T15:22:28.238Z,3.27
2022-08-05T15:25:41.121Z,3.35
2022-08-05T15:28:55.318Z,3.33
2022-08-05T15:32:02.363Z,3.17
2022-08-05T15:35:10.881Z,3.35
2022-08-05T15:38:35.946Z,3.10
2022-08-05T15:41:58.139Z,3.00
2022-08-05T15:45:01.856Z,3.33
2022-08-05T15:48:05.623Z,3.30
2022-08-05T15:51:10.917Z,3.10
2022-08-05T15:54:14.996Z,3.10
2022-08-05T15:57:20.679Z,3.10
2022-08-05T16:00:26.176Z,3.38
2022-08-05T16:03:35.591Z,3.67
2022-08-05T16:06:43.775Z,3.40
2022-08-05T16:09:46.457Z,3.33
2022-08-05T16:12:51.699Z,3.20
2022-08-05T16:15:55.038Z,3.78
2022-08-05T16:18:58.070Z,3.90
2022-08-05T16:22:03.668Z,4.20
2022-08-05T16:25:09.688Z,3.80
2022-08-05T16:28:15.493Z,4.30
2022-08-05T16:31:18.389Z,3.80
2022-08-05T16:34:22.573Z,3.40
2022-08-05T16:38:02.277Z,3.97
2022-08-05T16:40:54.926Z,3.07
2022-08-05T16:44:03.746Z,3.10
2022-08-05T16:47:07.219Z,2.78
2022-08-05T16:50:30.712Z,2.80
2022-08-05T16:54:04.304Z,2.60
2022-08-05T16:56:56.880Z,2.00
2022-08-05T17:00:08.584Z,2.00
2022-08-05T17:03:20.359Z,1.60
2022-08-05T17:06:24.508Z,1.70
2022-08-05T17:09:27.755Z,1.90
2022-08-05T17:12:51.822Z,1.10
2022-08-05T17:16:19.479Z,1.00
2022-08-05T17:19:19.222Z,0.90
2022-08-05T17:22:24.879Z,0.70
2022-08-05T17:25:34.180Z,0.90
2022-08-05T17:28:43.020Z,0.93
2022-08-05T17:31:58.640Z,1.10
2022-08-05T17:35:02.195Z,0.80
2022-08-05T17:38:08.037Z,0.80
2022-08-05T17:41:11.746Z,0.90
2022-08-05T17:44:34.140Z,0.80
2022-08-05T17:47:40.442Z,0.80
2022-08-05T17:50:43.158Z,0.60
2022-08-05T17:53:45.862Z,0.70
2022-08-05T17:56:57.379Z,0.65
2022-08-05T18:00:05.232Z,0.85
2022-08-05T18:03:10.305Z,0.80
2022-08-05T18:06:15.353Z,0.67
2022-08-05T18:09:18.333Z,0.73
2022-08-05T18:12:24.355Z,0.90
2022-08-05T18:15:27.563Z,0.60
2022-08-05T18:18:39.908Z,0.90
2022-08-05T18:22:08.758Z,0.83
2022-08-05T18:25:06.334Z,0.85
2022-08-05T18:28:09.895Z,0.70
2022-08-05T18:31:12.674Z,0.60
2022-08-05T18:34:21.748Z,0.87
2022-08-05T18:37:33.919Z,0.90
2022-08-05T18:41:53.594Z,0.68
2022-08-05T18:44:07.860Z,1.08
2022-08-05T18:47:12.058Z,0.70
2022-08-05T18:50:42.200Z,0.90
2022-08-05T18:53:50.128Z,0.90
2022-08-05T18:56:53.458Z,0.80
2022-08-05T19:00:02.205Z,0.90
2022-08-05T19:03:06.133Z,0.80
2022-08-05T19:06:18.752Z,1.10
2022-08-05T19:09:24.994Z,0.80
2022-08-05T19:12:28.535Z,0.85
2022-08-05T19:15:58.950Z,1.02
2022-08-05T19:18:56.369Z,0.90
2022-08-05T19:22:01.025Z,1.10
2022-08-05T19:25:03.719Z,1.00
2022-08-05T19:28:06.402Z,1.55
2022-08-05T19:31:09.119Z,1.10
2022-08-05T19:34:18.660Z,1.10
2022-08-05T19:37:29.793Z,1.03
2022-08-05T19:40:37.911Z,1.37
2022-08-05T19:44:06.342Z,1.40
2022-08-05T19:47:05.414Z,1.50
2022-08-05T19:50:12.560Z,1.77
2022-08-05T19:53:16.642Z,1.90
2022-08-05T19:56:39.417Z,1.57
2022-08-05T20:00:00.806Z,1.20
2022-08-05T20:03:09.039Z,1.50
2022-08-05T20:06:15.957Z,1.10
2022-08-05T20:09:54.092Z,1.23
2022-08-05T20:12:56.094Z,1.20
2022-08-05T20:15:59.748Z,1.02
2022-08-05T20:19:03.346Z,1.15
2022-08-05T20:22:06.306Z,1.20
2022-08-05T20:25:13.857Z,1.30
2022-08-05T20:28:16.493Z,1.20
2022-08-05T20:31:21.862Z,1.50
2022-08-05T20:34:31.160Z,1.40
2022-08-05T20:38:06.331Z,1.35
2022-08-05T20:40:58.468Z,1.43
2022-08-05T20:44:07.130Z,1.50
2022-08-05T20:47:31.991Z,1.30
2022-08-05T20:50:36.930Z,1.60
2022-08-05T20:53:42.434Z,1.20
2022-08-05T20:56:59.508Z,1.37
2022-08-05T21:00:19.756Z,1.30
2022-08-05T21:03:34.477Z,1.30
2022-08-05T21:06:45.077Z,1.40
2022-08-05T21:09:50.114Z,1.30
2022-08-05T21:13:08.983Z,1.70
2022-08-05T21:16:18.791Z,1.37
2022-08-05T21:19:23.406Z,1.60
2022-08-05T21:22:26.493Z,1.50
2022-08-05T21:25:33.877Z,1.42
2022-08-05T21:28:39.865Z,1.70
2022-08-05T21:31:50.844Z,1.63
2022-08-05T21:35:06.901Z,1.35
2022-08-05T21:38:17.194Z,1.38
2022-08-05T21:41:20.620Z,1.40
2022-08-05T21:44:26.812Z,1.77
2022-08-05T21:47:55.229Z,1.50
2022-08-05T21:50:54.040Z,1.60
2022-08-05T21:54:03.574Z,1.57
2022-08-05T21:57:30.666Z,1.67
2022-08-05T22:00:31.188Z,1.48
2022-08-05T22:03:52.290Z,1.52
2022-08-05T22:06:57.013Z,1.60
2022-08-05T22:10:00.294Z,1.77
2022-08-05T22:13:58.867Z,2.10
2022-08-05T22:16:42.117Z,1.88
2022-08-05T22:20:01.931Z,1.63
2022-08-05T22:24:02.432Z,1.80
2022-08-05T22:27:06.822Z,1.67
2022-08-05T22:30:15.038Z,2.00
2022-08-05T22:33:57.134Z,2.05
2022-08-05T22:36:44.132Z,1.92
2022-08-05T22:39:50.924Z,2.00
2022-08-05T22:42:58.399Z,1.83
2022-08-05T22:46:07.258Z,2.00
2022-08-05T22:50:17.235Z,2.05
2022-08-05T22:52:37.401Z,2.08
2022-08-05T22:55:57.338Z,1.90
2022-08-05T22:59:04.086Z,1.92
2022-08-05T23:02:29.061Z,1.98
2022-08-05T23:05:36.111Z,1.65
2022-08-05T23:08:39.132Z,1.55
2022-08-05T23:11:41.884Z,1.60
2022-08-05T23:14:49.509Z,1.27
2022-08-05T23:18:01.757Z,1.38
2022-08-05T23:21:07.527Z,1.40
2022-08-05T23:24:13.143Z,1.40
2022-08-05T23:27:16.418Z,1.20
2022-08-05T23:30:27.067Z,1.17
2022-08-05T23:34:02.922Z,1.38
2022-08-05T23:36:56.035Z,1.20
2022-08-05T23:40:02.000Z,1.30
2022-08-05T23:43:11.482Z,1.20
2022-08-05T23:46:28.817Z,1.30
2022-08-05T23:49:35.672Z,1.40
2022-08-05T23:52:50.154Z,1.30
2022-08-05T23:55:53.533Z,1.40
2022-08-05T23:58:58.554Z,1.13
